createdAt,value
2022-12-18T00:00:20.011Z,-4.07
2022-12-18T00:01:24.113Z,-4.13
2022-12-18T00:02:14.846Z,-4.15
2022-12-18T00:03:38.681Z,-4.07
2022-12-18T00:04:14.774Z,-4.19
2022-12-18T00:05:13.615Z,-4.17
2022-12-18T00:06:13.612Z,-4.16
2022-12-18T00:07:13.617Z,-4.10
2022-12-18T00:08:13.562Z,-4.19
2022-12-18T00:09:13.535Z,-4.22
2022-12-18T00:10:15.474Z,-4.15
2022-12-18T00:11:13.563Z,-4.15
2022-12-18T00:13:13.494Z,-4.20
2022-12-18T00:14:13.456Z,-4.15
2022-12-18T00:15:13.472Z,-4.17
2022-12-18T00:16:13.464Z,-4.22
2022-12-18T00:17:13.436Z,-4.15
2022-12-18T00:18:16.081Z,-4.26
2022-12-18T00:19:15.363Z,-4.19
2022-12-18T00:20:13.342Z,-4.26
2022-12-18T00:21:13.350Z,-4.20
2022-12-18T00:22:13.355Z,-4.23
2022-12-18T00:23:13.324Z,-4.20
2022-12-18T00:24:13.283Z,-4.22
2022-12-18T00:25:13.281Z,-4.22
2022-12-18T00:26:13.255Z,-4.31
2022-12-18T00:27:14.271Z,-4.30
2022-12-18T00:28:13.248Z,-4.30
2022-12-18T00:29:13.223Z,-4.26
2022-12-18T00:30:13.175Z,-4.34
2022-12-18T00:31:13.228Z,-4.31
2022-12-18T00:32:13.171Z,-4.16
2022-12-18T00:33:13.139Z,-4.27
2022-12-18T00:34:13.129Z,-4.31
2022-12-18T00:35:13.104Z,-4.31
2022-12-18T00:36:13.071Z,-4.23
2022-12-18T00:37:18.283Z,-4.33
2022-12-18T00:38:15.038Z,-4.27
2022-12-18T00:39:13.031Z,-4.28
2022-12-18T00:40:13.014Z,-4.34
2022-12-18T00:41:13.037Z,-4.19
2022-12-18T00:42:13.075Z,-4.34
2022-12-18T00:43:12.963Z,-4.26
2022-12-18T00:44:12.947Z,-4.28
2022-12-18T00:45:13.429Z,-4.28
2022-12-18T00:46:13.964Z,-4.31
2022-12-18T00:47:12.921Z,-4.36
2022-12-18T00:48:12.906Z,-4.26
2022-12-18T00:49:12.890Z,-4.26
2022-12-18T00:50:12.841Z,-4.28
2022-12-18T00:51:12.852Z,-4.26
2022-12-18T00:52:12.852Z,-4.31
2022-12-18T00:53:12.794Z,-4.31
2022-12-18T00:54:12.772Z,-4.30
2022-12-18T00:55:15.270Z,-4.38
2022-12-18T00:56:12.737Z,-4.27
2022-12-18T00:57:12.743Z,-4.31
2022-12-18T00:58:12.700Z,-4.23
2022-12-18T00:59:12.697Z,-4.23
2022-12-18T01:00:12.706Z,-4.33
2022-12-18T01:01:12.676Z,-4.31
2022-12-18T01:02:12.902Z,-4.37
2022-12-18T01:03:12.676Z,-4.30
2022-12-18T01:04:12.599Z,-4.31
2022-12-18T01:05:12.582Z,-4.34
2022-12-18T01:06:12.588Z,-4.31
2022-12-18T01:07:12.589Z,-4.40
2022-12-18T01:08:12.739Z,-4.34
2022-12-18T01:09:12.518Z,-4.33
2022-12-18T01:10:12.511Z,-4.45
2022-12-18T01:11:12.477Z,-4.28
2022-12-18T01:12:12.493Z,-4.33
2022-12-18T01:13:12.451Z,-4.36
2022-12-18T01:14:12.434Z,-4.36
2022-12-18T01:15:12.403Z,-4.34
2022-12-18T01:16:12.470Z,-4.33
2022-12-18T01:17:12.413Z,-4.27
2022-12-18T01:18:12.356Z,-4.30
2022-12-18T01:19:12.605Z,-4.23
2022-12-18T01:20:12.325Z,-4.17
2022-12-18T01:21:12.305Z,-4.20
2022-12-18T01:22:12.344Z,-4.22
2022-12-18T01:23:12.282Z,-4.13
2022-12-18T01:24:12.349Z,-4.20
2022-12-18T01:25:12.251Z,-4.19
2022-12-18T01:26:12.217Z,-4.26
2022-12-18T01:27:12.239Z,-4.27
2022-12-18T01:28:12.191Z,-4.23
2022-12-18T01:29:12.175Z,-4.22
2022-12-18T01:30:12.156Z,-4.22
2022-12-18T01:31:12.157Z,-4.17
2022-12-18T01:32:12.194Z,-4.20
2022-12-18T01:33:12.114Z,-4.26
2022-12-18T01:34:12.120Z,-4.20
2022-12-18T01:35:12.081Z,-4.20
2022-12-18T01:36:12.043Z,-4.20
2022-12-18T01:37:12.077Z,-4.13
2022-12-18T01:38:12.028Z,-4.20
2022-12-18T01:39:12.020Z,-4.26
2022-12-18T01:40:11.984Z,-4.22
2022-12-18T01:41:12.170Z,-4.16
2022-12-18T01:42:11.968Z,-4.20
2022-12-18T01:43:11.970Z,-4.16
2022-12-18T01:44:11.943Z,-4.31
2022-12-18T01:45:11.995Z,-4.31
2022-12-18T01:46:11.966Z,-4.23
2022-12-18T01:47:11.898Z,-4.31
2022-12-18T01:48:11.844Z,-4.38
2022-12-18T01:49:11.818Z,-4.33
2022-12-18T01:50:11.812Z,-4.34
2022-12-18T01:51:11.838Z,-4.45
2022-12-18T01:52:12.814Z,-4.51
2022-12-18T01:53:11.751Z,-4.45
2022-12-18T01:54:11.803Z,-4.41
2022-12-18T01:55:11.725Z,-4.45
2022-12-18T01:56:11.730Z,-4.44
2022-12-18T01:57:11.719Z,-4.51
2022-12-18T01:58:11.663Z,-4.52
2022-12-18T01:59:11.721Z,-4.55
2022-12-18T02:00:11.632Z,-4.65
2022-12-18T02:01:11.665Z,-4.62
2022-12-18T02:02:11.789Z,-4.58
2022-12-18T02:03:11.670Z,-4.52
2022-12-18T02:04:11.555Z,-4.59
2022-12-18T02:05:11.561Z,-4.59
2022-12-18T02:06:11.615Z,-4.66
2022-12-18T02:07:11.555Z,-4.59
2022-12-18T02:08:11.500Z,-4.58
2022-12-18T02:09:11.485Z,-4.65
2022-12-18T02:10:11.469Z,-4.72
2022-12-18T02:11:11.444Z,-4.69
2022-12-18T02:12:11.461Z,-4.56
2022-12-18T02:13:11.479Z,-4.63
2022-12-18T02:14:11.409Z,-4.52
2022-12-18T02:15:11.386Z,-4.55
2022-12-18T02:16:11.415Z,-4.62
2022-12-18T02:17:11.386Z,-4.40
2022-12-18T02:18:11.339Z,-4.49
2022-12-18T02:19:11.315Z,-4.49
2022-12-18T02:20:11.301Z,-4.55
2022-12-18T02:21:11.277Z,-4.66
2022-12-18T02:22:11.313Z,-4.55
2022-12-18T02:23:11.250Z,-4.65
2022-12-18T02:24:11.225Z,-4.52
2022-12-18T02:25:11.213Z,-4.56
2022-12-18T02:26:11.193Z,-4.52
2022-12-18T02:27:11.213Z,-4.55
2022-12-18T02:28:11.151Z,-4.59
2022-12-18T02:29:12.225Z,-4.59
2022-12-18T02:30:11.129Z,-4.62
2022-12-18T02:31:11.164Z,-4.45
2022-12-18T02:32:11.128Z,-4.52
2022-12-18T02:33:11.086Z,-4.63
2022-12-18T02:34:11.069Z,-4.49
2022-12-18T02:35:11.062Z,-4.48
2022-12-18T02:36:11.031Z,-4.40
2022-12-18T02:37:11.060Z,-4.40
2022-12-18T02:38:11.016Z,-4.41
2022-12-18T02:39:11.032Z,-4.31
2022-12-18T02:40:11.035Z,-4.28
2022-12-18T02:41:10.962Z,-4.23
2022-12-18T02:42:10.971Z,-4.31
2022-12-18T02:43:10.918Z,-4.28
2022-12-18T02:44:10.897Z,-4.30
2022-12-18T02:45:10.946Z,-4.27
2022-12-18T02:46:10.897Z,-4.37
2022-12-18T02:47:10.890Z,-4.23
2022-12-18T02:48:10.836Z,-4.33
2022-12-18T02:49:10.816Z,-4.37
2022-12-18T02:50:10.809Z,-4.30
2022-12-18T02:51:10.794Z,-4.33
2022-12-18T02:52:10.802Z,-4.27
2022-12-18T02:53:10.759Z,-4.27
2022-12-18T02:54:10.734Z,-4.20
2022-12-18T02:55:10.729Z,-4.22
2022-12-18T02:56:10.706Z,-4.27
2022-12-18T02:57:10.695Z,-4.13
2022-12-18T02:58:10.703Z,-4.15
2022-12-18T02:59:10.651Z,-4.31
2022-12-18T03:00:10.631Z,-4.16
2022-12-18T03:01:10.740Z,-4.26
2022-12-18T03:02:10.768Z,-4.27
2022-12-18T03:03:10.694Z,-4.20
2022-12-18T03:04:10.583Z,-4.19
2022-12-18T03:05:10.556Z,-4.20
2022-12-18T03:06:10.544Z,-4.31
2022-12-18T03:07:10.516Z,-4.19
2022-12-18T03:08:10.527Z,-4.26
2022-12-18T03:09:10.587Z,-4.13
2022-12-18T03:10:10.475Z,-4.12
2022-12-18T03:11:10.443Z,-4.10
2022-12-18T03:12:10.430Z,-4.15
2022-12-18T03:13:10.450Z,-4.16
2022-12-18T03:14:10.403Z,-4.12
2022-12-18T03:15:15.998Z,-4.02
2022-12-18T03:16:12.456Z,-4.04
2022-12-18T03:17:10.366Z,-4.07
2022-12-18T03:18:10.370Z,-4.10
2022-12-18T03:19:10.338Z,-4.12
2022-12-18T03:20:10.317Z,-4.01
2022-12-18T03:21:10.291Z,-3.94
2022-12-18T03:22:10.267Z,-3.95
2022-12-18T03:23:10.317Z,-3.84
2022-12-18T03:24:10.237Z,-3.92
2022-12-18T03:25:10.220Z,-3.83
2022-12-18T03:26:10.215Z,-3.86
2022-12-18T03:27:10.183Z,-3.81
2022-12-18T03:28:10.196Z,-3.81
2022-12-18T03:29:10.178Z,-3.77
2022-12-18T03:30:10.143Z,-3.91
2022-12-18T03:31:10.145Z,-3.84
2022-12-18T03:32:10.179Z,-3.89
2022-12-18T03:33:10.115Z,-3.84
2022-12-18T03:34:10.068Z,-3.80
2022-12-18T03:35:10.053Z,-3.76
2022-12-18T03:36:10.044Z,-3.81
2022-12-18T03:37:10.035Z,-3.77
2022-12-18T03:38:10.042Z,-3.79
2022-12-18T03:39:10.009Z,-3.77
2022-12-18T03:40:09.970Z,-3.62
2022-12-18T03:41:09.959Z,-3.72
2022-12-18T03:42:09.930Z,-3.80
2022-12-18T03:43:09.954Z,-3.80
2022-12-18T03:44:09.912Z,-3.89
2022-12-18T03:45:09.887Z,-3.86
2022-12-18T03:46:09.962Z,-3.83
2022-12-18T03:47:09.865Z,-3.89
2022-12-18T03:48:09.940Z,-3.92
2022-12-18T03:49:09.820Z,-3.89
2022-12-18T03:50:12.816Z,-3.88
2022-12-18T03:51:10.803Z,-3.84
2022-12-18T03:52:09.781Z,-3.94
2022-12-18T03:53:09.794Z,-3.94
2022-12-18T03:54:09.744Z,-3.91
2022-12-18T03:55:09.734Z,-3.94
2022-12-18T03:56:09.712Z,-4.09
2022-12-18T03:57:09.689Z,-3.98
2022-12-18T03:58:09.712Z,-3.99
2022-12-18T03:59:09.668Z,-3.99
2022-12-18T04:00:09.648Z,-3.98
2022-12-18T04:01:09.696Z,-3.99
2022-12-18T04:02:09.705Z,-3.94
2022-12-18T04:03:09.664Z,-3.91
2022-12-18T04:04:09.789Z,-3.88
2022-12-18T04:05:09.568Z,-3.88
2022-12-18T04:06:09.541Z,-3.89
2022-12-18T04:07:09.527Z,-3.94
2022-12-18T04:08:09.537Z,-3.89
2022-12-18T04:09:09.491Z,-4.04
2022-12-18T04:10:09.474Z,-4.06
2022-12-18T04:11:09.459Z,-3.92
2022-12-18T04:12:09.456Z,-4.04
2022-12-18T04:13:09.468Z,-3.99
2022-12-18T04:14:14.434Z,-3.99
2022-12-18T04:15:11.393Z,-3.94
2022-12-18T04:16:09.458Z,-4.04
2022-12-18T04:17:09.357Z,-3.99
2022-12-18T04:18:09.469Z,-4.10
2022-12-18T04:19:09.366Z,-4.16
2022-12-18T04:20:09.391Z,-4.09
2022-12-18T04:21:09.319Z,-4.15
2022-12-18T04:22:09.284Z,-4.09
2022-12-18T04:23:09.297Z,-4.02
2022-12-18T04:24:09.251Z,-4.13
2022-12-18T04:25:09.238Z,-4.02
2022-12-18T04:26:09.215Z,-4.02
2022-12-18T04:27:09.211Z,-3.88
2022-12-18T04:28:09.213Z,-3.94
2022-12-18T04:29:09.166Z,-3.88
2022-12-18T04:30:09.149Z,-3.89
2022-12-18T04:31:09.194Z,-3.91
2022-12-18T04:32:09.115Z,-3.89
2022-12-18T04:33:09.221Z,-4.07
2022-12-18T04:34:09.080Z,-4.12
2022-12-18T04:35:09.067Z,-4.16
2022-12-18T04:36:09.138Z,-4.19
2022-12-18T04:37:09.042Z,-4.20
2022-12-18T04:38:09.066Z,-4.27
2022-12-18T04:39:09.004Z,-4.27
2022-12-18T04:40:08.994Z,-4.15
2022-12-18T04:41:08.968Z,-4.12
2022-12-18T04:42:08.949Z,-4.15
2022-12-18T04:43:08.996Z,-4.12
2022-12-18T04:44:08.927Z,-4.04
2022-12-18T04:45:08.920Z,-4.02
2022-12-18T04:46:08.976Z,-4.13
2022-12-18T04:47:08.881Z,-4.06
2022-12-18T04:48:08.892Z,-4.07
2022-12-18T04:49:08.907Z,-3.97
2022-12-18T04:50:08.832Z,-4.07
2022-12-18T04:51:08.811Z,-4.09
2022-12-18T04:52:08.947Z,-4.13
2022-12-18T04:53:08.823Z,-4.16
2022-12-18T04:54:09.763Z,-4.06
2022-12-18T04:55:08.739Z,-4.19
2022-12-18T04:56:08.738Z,-4.15
2022-12-18T04:57:08.748Z,-4.19
2022-12-18T04:58:08.719Z,-4.13
2022-12-18T04:59:08.681Z,-4.13
2022-12-18T05:00:08.665Z,-4.13
2022-12-18T05:01:08.657Z,-4.15
2022-12-18T05:02:08.708Z,-4.09
2022-12-18T05:03:08.636Z,-4.15
2022-12-18T05:04:08.660Z,-4.13
2022-12-18T05:05:08.571Z,-4.17
2022-12-18T05:06:08.560Z,-4.16
2022-12-18T05:07:08.530Z,-4.09
2022-12-18T05:08:09.625Z,-4.15
2022-12-18T05:09:09.499Z,-4.10
2022-12-18T05:10:08.515Z,-4.13
2022-12-18T05:11:08.491Z,-4.16
2022-12-18T05:12:08.457Z,-4.16
2022-12-18T05:13:08.477Z,-4.17
2022-12-18T05:14:08.480Z,-4.17
2022-12-18T05:15:08.418Z,-4.15
2022-12-18T05:16:08.463Z,-4.17
2022-12-18T05:17:08.404Z,-4.10
2022-12-18T05:18:08.387Z,-4.16
2022-12-18T05:19:08.347Z,-4.20
2022-12-18T05:20:08.352Z,-4.17
2022-12-18T05:21:08.313Z,-4.15
2022-12-18T05:22:08.319Z,-4.22
2022-12-18T05:23:08.319Z,-4.22
2022-12-18T05:24:08.336Z,-4.17
2022-12-18T05:25:08.255Z,-4.22
2022-12-18T05:26:08.234Z,-4.23
2022-12-18T05:27:08.208Z,-4.23
2022-12-18T05:28:08.214Z,-4.22
2022-12-18T05:29:08.171Z,-4.27
2022-12-18T05:30:08.191Z,-4.20
2022-12-18T05:31:08.188Z,-4.22
2022-12-18T05:32:08.121Z,-4.22
2022-12-18T05:33:08.136Z,-4.22
2022-12-18T05:34:08.093Z,-4.23
2022-12-18T05:35:08.067Z,-4.26
2022-12-18T05:36:08.059Z,-4.22
2022-12-18T05:37:08.047Z,-4.26
2022-12-18T05:38:08.057Z,-4.28
2022-12-18T05:39:08.009Z,-4.20
2022-12-18T05:40:08.056Z,-4.34
2022-12-18T05:41:07.970Z,-4.31
2022-12-18T05:42:07.953Z,-4.22
2022-12-18T05:43:07.980Z,-4.22
2022-12-18T05:44:07.948Z,-4.26
2022-12-18T05:45:07.904Z,-4.22
2022-12-18T05:46:07.924Z,-4.34
2022-12-18T05:47:07.865Z,-4.33
2022-12-18T05:48:07.883Z,-4.26
2022-12-18T05:49:07.934Z,-4.27
2022-12-18T05:50:07.828Z,-4.33
2022-12-18T05:51:07.812Z,-4.27
2022-12-18T05:52:07.801Z,-4.40
2022-12-18T05:53:07.809Z,-4.36
2022-12-18T05:54:07.758Z,-4.37
2022-12-18T05:55:07.738Z,-4.41
2022-12-18T05:56:07.792Z,-4.44
2022-12-18T05:57:07.708Z,-4.48
2022-12-18T05:58:07.694Z,-4.46
2022-12-18T05:59:07.713Z,-4.41
2022-12-18T06:00:07.661Z,-4.48
2022-12-18T06:01:07.640Z,-4.48
2022-12-18T06:02:07.706Z,-4.45
2022-12-18T06:03:07.644Z,-4.48
2022-12-18T06:04:07.641Z,-4.48
2022-12-18T06:05:07.574Z,-4.51
2022-12-18T06:06:07.551Z,-4.52
2022-12-18T06:07:07.541Z,-4.56
2022-12-18T06:08:07.519Z,-4.51
2022-12-18T06:09:07.541Z,-4.52
2022-12-18T06:10:07.485Z,-4.62
2022-12-18T06:11:07.465Z,-4.55
2022-12-18T06:12:07.521Z,-4.52
2022-12-18T06:13:07.435Z,-4.54
2022-12-18T06:14:07.489Z,-4.55
2022-12-18T06:15:07.402Z,-4.65
2022-12-18T06:16:07.471Z,-4.62
2022-12-18T06:17:07.372Z,-4.58
2022-12-18T06:18:07.359Z,-4.63
2022-12-18T06:19:07.374Z,-4.65
2022-12-18T06:20:07.327Z,-4.62
2022-12-18T06:21:07.311Z,-4.69
2022-12-18T06:22:07.294Z,-4.62
2022-12-18T06:23:07.270Z,-4.76
2022-12-18T06:24:07.296Z,-4.73
2022-12-18T06:25:07.231Z,-4.72
2022-12-18T06:26:08.228Z,-4.67
2022-12-18T06:27:07.208Z,-4.70
2022-12-18T06:28:07.256Z,-4.76
2022-12-18T06:29:07.199Z,-4.83
2022-12-18T06:30:07.163Z,-4.70
2022-12-18T06:31:07.230Z,-4.70
2022-12-18T06:32:07.121Z,-4.73
2022-12-18T06:33:07.109Z,-4.77
2022-12-18T06:34:07.121Z,-4.84
2022-12-18T06:35:07.082Z,-4.84
2022-12-18T06:36:07.050Z,-4.77
2022-12-18T06:37:07.035Z,-4.81
2022-12-18T06:38:07.027Z,-4.81
2022-12-18T06:39:07.049Z,-4.74
2022-12-18T06:40:07.005Z,-4.74
2022-12-18T06:41:06.969Z,-4.69
2022-12-18T06:42:06.962Z,-4.72
2022-12-18T06:43:06.939Z,-4.74
2022-12-18T06:44:07.026Z,-4.67
2022-12-18T06:45:06.910Z,-4.66
2022-12-18T06:46:06.943Z,-4.77
2022-12-18T06:47:06.875Z,-4.81
2022-12-18T06:48:06.856Z,-4.77
2022-12-18T06:49:06.876Z,-4.62
2022-12-18T06:50:06.817Z,-4.73
2022-12-18T06:51:06.822Z,-4.69
2022-12-18T06:52:06.793Z,-4.72
2022-12-18T06:53:06.780Z,-4.63
2022-12-18T06:54:06.790Z,-4.59
2022-12-18T06:55:06.745Z,-4.62
2022-12-18T06:56:38.590Z,-4.56
2022-12-18T06:57:06.706Z,-4.58
2022-12-18T06:58:06.707Z,-4.55
2022-12-18T06:59:06.726Z,-4.58
2022-12-18T07:00:06.743Z,-4.56
2022-12-18T07:01:06.709Z,-4.62
2022-12-18T07:02:06.756Z,-4.54
2022-12-18T07:03:06.633Z,-4.55
2022-12-18T07:04:06.620Z,-4.52
2022-12-18T07:05:10.773Z,-4.34
2022-12-18T07:06:07.557Z,-4.55
2022-12-18T07:07:06.538Z,-4.54
2022-12-18T07:08:06.522Z,-4.52
2022-12-18T07:09:06.542Z,-4.51
2022-12-18T07:10:06.543Z,-4.37
2022-12-18T07:11:06.492Z,-4.45
2022-12-18T07:12:06.462Z,-4.36
2022-12-18T07:13:06.449Z,-4.30
2022-12-18T07:14:06.458Z,-4.20
2022-12-18T07:15:06.408Z,-4.27
2022-12-18T07:16:10.921Z,-4.15
2022-12-18T07:17:08.394Z,-4.17
2022-12-18T07:18:06.358Z,-4.13
2022-12-18T07:19:06.374Z,-4.17
2022-12-18T07:20:06.325Z,-4.13
2022-12-18T07:21:06.309Z,-4.09
2022-12-18T07:22:06.306Z,-4.06
2022-12-18T07:23:06.276Z,-4.09
2022-12-18T07:24:06.294Z,-4.09
2022-12-18T07:25:06.243Z,-4.04
2022-12-18T07:26:06.234Z,-4.10
2022-12-18T07:27:06.213Z,-4.22
2022-12-18T07:28:06.195Z,-4.17
2022-12-18T07:29:06.208Z,-4.12
2022-12-18T07:30:06.167Z,-4.15
2022-12-18T07:31:06.163Z,-4.16
2022-12-18T07:32:07.259Z,-4.10
2022-12-18T07:33:06.112Z,-3.98
2022-12-18T07:34:06.210Z,-4.06
2022-12-18T07:35:06.095Z,-3.83
2022-12-18T07:36:06.053Z,-3.86
2022-12-18T07:37:06.075Z,-3.74
2022-12-18T07:38:06.028Z,-3.70
2022-12-18T07:39:06.177Z,-3.59
2022-12-18T07:40:05.999Z,-3.55
2022-12-18T07:41:06.737Z,-3.55
2022-12-18T07:42:05.965Z,-3.61
2022-12-18T07:43:05.966Z,-3.47
2022-12-18T07:44:05.970Z,-3.41
2022-12-18T07:45:05.927Z,-3.39
2022-12-18T07:46:05.941Z,-3.33
2022-12-18T07:47:10.531Z,-3.19
2022-12-18T07:48:07.931Z,-3.10
2022-12-18T07:49:05.883Z,-2.84
2022-12-18T07:50:05.843Z,-2.72
2022-12-18T07:51:05.798Z,-2.55
2022-12-18T07:52:05.792Z,-2.16
2022-12-18T07:53:05.820Z,-1.75
2022-12-18T07:54:05.818Z,-1.35
2022-12-18T07:55:05.732Z,-1.02
2022-12-18T07:56:26.406Z,-0.55
2022-12-18T07:57:21.316Z,-0.08
2022-12-18T07:58:07.692Z,0.33
2022-12-18T07:59:05.701Z,0.84
2022-12-18T08:00:05.681Z,1.16
2022-12-18T08:01:05.661Z,1.54
2022-12-18T08:02:05.755Z,1.70
2022-12-18T08:03:05.610Z,1.98
2022-12-18T08:04:05.743Z,2.27
2022-12-18T08:05:05.559Z,2.48
2022-12-18T08:06:05.546Z,2.62
2022-12-18T08:07:05.550Z,2.87
2022-12-18T08:08:05.514Z,3.22
2022-12-18T08:09:05.514Z,3.08
2022-12-18T08:10:05.513Z,3.31
2022-12-18T08:11:05.471Z,3.68
2022-12-18T08:12:05.450Z,3.88
2022-12-18T08:13:05.486Z,3.89
2022-12-18T08:14:05.413Z,4.10
2022-12-18T08:15:05.447Z,4.24
2022-12-18T08:16:05.375Z,4.24
2022-12-18T08:17:05.454Z,4.39
2022-12-18T08:18:08.062Z,3.95
2022-12-18T08:19:05.332Z,3.72
2022-12-18T08:20:05.411Z,3.63
2022-12-18T08:21:05.320Z,3.25
2022-12-18T08:22:05.281Z,3.37
2022-12-18T08:23:05.254Z,3.37
2022-12-18T08:24:05.255Z,3.53
2022-12-18T08:25:05.260Z,3.15
2022-12-18T08:26:05.219Z,2.84
2022-12-18T08:27:34.624Z,2.90
2022-12-18T08:28:07.176Z,2.71
2022-12-18T08:29:05.179Z,2.87
2022-12-18T08:30:05.212Z,3.23
2022-12-18T08:31:05.239Z,2.99
2022-12-18T08:32:05.161Z,3.12
2022-12-18T08:33:05.119Z,3.25
2022-12-18T08:34:05.108Z,3.46
2022-12-18T08:35:05.090Z,3.89
2022-12-18T08:36:06.131Z,3.90
2022-12-18T08:37:05.034Z,3.89
2022-12-18T08:38:04.998Z,3.92
2022-12-18T08:39:05.992Z,4.06
2022-12-18T08:40:05.006Z,4.21
2022-12-18T08:41:04.959Z,4.26
2022-12-18T08:42:09.854Z,4.32
2022-12-18T08:43:06.930Z,4.35
2022-12-18T08:44:04.913Z,4.65
2022-12-18T08:45:04.936Z,4.64
2022-12-18T08:46:04.912Z,4.38
2022-12-18T08:47:04.861Z,4.72
2022-12-18T08:48:04.856Z,4.87
2022-12-18T08:49:04.824Z,5.19
2022-12-18T08:50:04.922Z,5.29
2022-12-18T08:51:04.797Z,5.06
2022-12-18T08:52:04.849Z,5.29
2022-12-18T08:53:04.759Z,5.44
2022-12-18T08:54:04.738Z,5.52
2022-12-18T08:55:04.752Z,5.80
2022-12-18T08:56:04.712Z,5.80
2022-12-18T08:57:04.715Z,6.17
2022-12-18T08:58:04.683Z,6.39
2022-12-18T08:59:04.657Z,6.71
2022-12-18T09:00:04.685Z,7.11
2022-12-18T09:01:04.685Z,7.51
2022-12-18T09:02:04.785Z,7.57
2022-12-18T09:03:04.647Z,7.81
2022-12-18T09:04:04.576Z,7.18
2022-12-18T09:05:04.602Z,6.69
2022-12-18T09:06:04.540Z,5.84
2022-12-18T09:07:04.534Z,5.63
2022-12-18T09:08:04.576Z,5.17
2022-12-18T09:09:04.513Z,4.68
2022-12-18T09:10:04.503Z,4.46
2022-12-18T09:11:04.460Z,4.49
2022-12-18T09:12:04.455Z,4.67
2022-12-18T09:13:04.430Z,4.90
2022-12-18T09:14:04.424Z,4.39
2022-12-18T09:15:04.539Z,3.80
2022-12-18T09:16:04.396Z,3.86
2022-12-18T09:17:04.451Z,3.84
2022-12-18T09:18:04.347Z,3.77
2022-12-18T09:19:04.328Z,4.32
2022-12-18T09:20:08.410Z,4.56
2022-12-18T09:21:04.356Z,4.75
2022-12-18T09:22:04.273Z,4.51
2022-12-18T09:23:04.272Z,4.56
2022-12-18T09:24:04.316Z,4.47
2022-12-18T09:25:04.361Z,4.59
2022-12-18T09:26:04.213Z,4.42
2022-12-18T09:27:04.211Z,4.36
2022-12-18T09:28:04.175Z,4.25
2022-12-18T09:29:04.171Z,4.20
2022-12-18T09:30:04.406Z,4.54
2022-12-18T09:31:04.154Z,4.56
2022-12-18T09:32:04.106Z,4.77
2022-12-18T09:33:04.089Z,4.62
2022-12-18T09:34:04.078Z,5.04
2022-12-18T09:35:04.104Z,5.24
2022-12-18T09:36:04.051Z,5.49
2022-12-18T09:37:04.026Z,5.96
2022-12-18T09:38:04.020Z,6.48
2022-12-18T09:39:08.163Z,6.57
2022-12-18T09:40:05.089Z,6.53
2022-12-18T09:41:03.962Z,6.68
2022-12-18T09:42:04.973Z,6.81
2022-12-18T09:43:03.928Z,6.72
2022-12-18T09:44:03.951Z,6.79
2022-12-18T09:45:04.055Z,6.89
2022-12-18T09:46:03.993Z,6.89
2022-12-18T09:47:03.853Z,7.19
2022-12-18T09:48:03.841Z,6.64
2022-12-18T09:49:03.820Z,6.68
2022-12-18T09:50:03.851Z,6.60
2022-12-18T09:51:03.809Z,6.46
2022-12-18T09:52:03.776Z,6.40
2022-12-18T09:53:03.772Z,6.42
2022-12-18T09:54:03.732Z,5.99
2022-12-18T09:55:03.757Z,5.77
2022-12-18T09:56:03.772Z,5.75
2022-12-18T09:57:03.695Z,5.65
2022-12-18T09:58:03.670Z,5.47
2022-12-18T09:59:03.653Z,5.24
2022-12-18T10:00:03.677Z,5.20
2022-12-18T10:01:03.621Z,5.05
2022-12-18T10:02:03.750Z,5.04
2022-12-18T10:03:03.781Z,5.30
2022-12-18T10:04:03.737Z,5.56
2022-12-18T10:05:03.683Z,5.60
2022-12-18T10:06:03.631Z,5.81
2022-12-18T10:07:08.931Z,6.02
2022-12-18T10:08:05.615Z,6.27
2022-12-18T10:09:03.580Z,6.24
2022-12-18T10:10:03.585Z,6.20
2022-12-18T10:11:03.584Z,6.13
2022-12-18T10:12:03.606Z,5.93
2022-12-18T10:13:04.852Z,5.87
2022-12-18T10:14:04.521Z,5.74
2022-12-18T10:15:03.480Z,6.05
2022-12-18T10:16:03.458Z,6.48
2022-12-18T10:17:03.439Z,6.36
2022-12-18T10:18:03.425Z,6.48
2022-12-18T10:19:03.415Z,6.54
2022-12-18T10:20:03.373Z,6.63
2022-12-18T10:21:03.378Z,6.40
2022-12-18T10:22:03.378Z,6.61
2022-12-18T10:23:03.370Z,6.60
2022-12-18T10:24:03.350Z,6.28
2022-12-18T10:25:03.361Z,6.24
2022-12-18T10:26:03.295Z,5.95
2022-12-18T10:27:03.306Z,5.83
2022-12-18T10:28:08.765Z,5.93
2022-12-18T10:29:05.845Z,5.96
2022-12-18T10:30:04.236Z,6.13
2022-12-18T10:31:03.299Z,6.32
2022-12-18T10:32:03.312Z,6.16
2022-12-18T10:33:03.204Z,5.81
2022-12-18T10:34:03.171Z,6.05
2022-12-18T10:35:03.312Z,5.93
2022-12-18T10:36:03.162Z,5.92
2022-12-18T10:37:03.094Z,5.92
2022-12-18T10:38:03.148Z,5.62
2022-12-18T10:39:03.134Z,5.38
2022-12-18T10:40:03.115Z,5.09
2022-12-18T10:41:03.075Z,5.26
2022-12-18T10:42:03.079Z,5.45
2022-12-18T10:43:02.991Z,5.51
2022-12-18T10:44:03.051Z,5.06
2022-12-18T10:45:02.986Z,5.01
2022-12-18T10:46:03.035Z,4.64
2022-12-18T10:47:06.160Z,4.69
2022-12-18T10:48:03.960Z,4.29
2022-12-18T10:49:02.942Z,4.34
2022-12-18T10:50:02.928Z,4.36
2022-12-18T10:51:12.896Z,4.49
2022-12-18T10:52:04.940Z,4.21
2022-12-18T10:53:02.931Z,4.18
2022-12-18T10:54:02.890Z,3.99
2022-12-18T10:55:02.803Z,3.77
2022-12-18T10:56:02.833Z,3.92
2022-12-18T10:57:02.788Z,3.92
2022-12-18T10:58:02.791Z,3.95
2022-12-18T10:59:02.755Z,4.00
2022-12-18T11:00:02.740Z,4.17
2022-12-18T11:01:08.573Z,4.02
2022-12-18T11:02:03.942Z,3.82
2022-12-18T11:03:02.769Z,3.23
2022-12-18T11:04:03.005Z,3.07
2022-12-18T11:05:02.663Z,2.74
2022-12-18T11:06:02.667Z,2.58
2022-12-18T11:07:02.671Z,2.33
2022-12-18T11:08:02.630Z,1.86
2022-12-18T11:09:05.360Z,2.02
2022-12-18T11:10:03.541Z,1.85
2022-12-18T11:11:02.555Z,1.64
2022-12-18T11:12:02.483Z,1.47
2022-12-18T11:13:02.499Z,1.43
2022-12-18T11:14:02.502Z,1.47
2022-12-18T11:15:02.440Z,1.46
2022-12-18T11:16:02.521Z,1.38
2022-12-18T11:17:24.803Z,1.20
2022-12-18T11:18:04.513Z,0.89
2022-12-18T11:19:02.452Z,0.75
2022-12-18T11:20:02.386Z,0.78
2022-12-18T11:21:02.427Z,0.89
2022-12-18T11:22:02.313Z,0.78
2022-12-18T11:23:02.248Z,0.81
2022-12-18T11:24:02.253Z,0.71
2022-12-18T11:25:32.168Z,0.81
2022-12-18T11:26:04.228Z,0.62
2022-12-18T11:27:02.186Z,0.63
2022-12-18T11:28:02.170Z,0.44
2022-12-18T11:29:02.142Z,0.37
2022-12-18T11:30:02.151Z,0.02
2022-12-18T11:31:02.174Z,0.01
2022-12-18T11:32:02.099Z,-0.14
2022-12-18T11:33:02.088Z,-0.31
2022-12-18T11:35:04.120Z,-0.63
2022-12-18T11:36:02.068Z,-0.55
2022-12-18T11:37:02.032Z,-0.56
2022-12-18T11:38:02.005Z,-0.42
2022-12-18T11:39:01.986Z,-0.45
2022-12-18T11:40:01.971Z,-0.35
2022-12-18T11:41:01.970Z,-0.35
2022-12-18T11:42:01.921Z,-0.32
2022-12-18T11:43:01.920Z,-0.35
2022-12-18T11:44:01.887Z,-0.24
2022-12-18T11:45:01.889Z,-0.09
2022-12-18T11:46:01.994Z,-0.03
2022-12-18T11:47:01.880Z,0.07
2022-12-18T11:48:01.829Z,0.08
2022-12-18T11:49:01.808Z,0.25
2022-12-18T11:50:01.802Z,0.31
2022-12-18T11:51:01.880Z,0.17
2022-12-18T11:52:01.753Z,0.12
2022-12-18T11:53:05.956Z,0.01
2022-12-18T11:54:02.735Z,-0.09
2022-12-18T11:55:01.702Z,-0.05
2022-12-18T11:56:01.716Z,-0.14
2022-12-18T11:57:01.666Z,-0.20
2022-12-18T11:58:01.661Z,-0.21
2022-12-18T11:59:01.636Z,-0.30
2022-12-18T12:00:01.646Z,-0.32
2022-12-18T12:01:01.658Z,-0.27
2022-12-18T12:02:01.744Z,-0.31
2022-12-18T12:03:01.653Z,-0.41
2022-12-18T12:04:01.563Z,-0.47
2022-12-18T12:05:01.533Z,-0.49
2022-12-18T12:06:01.553Z,-0.56
2022-12-18T12:07:03.476Z,-0.49
2022-12-18T12:08:02.546Z,-0.55
2022-12-18T12:09:01.471Z,-0.62
2022-12-18T12:10:01.463Z,-0.62
2022-12-18T12:11:01.422Z,-0.62
2022-12-18T12:12:01.474Z,-0.60
2022-12-18T12:13:01.411Z,-0.49
2022-12-18T12:14:01.375Z,-0.47
2022-12-18T12:15:01.376Z,-0.44
2022-12-18T12:16:01.372Z,-0.52
2022-12-18T12:17:01.427Z,-0.58
2022-12-18T12:18:01.308Z,-0.55
2022-12-18T12:19:01.300Z,-0.59
2022-12-18T12:20:01.264Z,-0.74
2022-12-18T12:21:01.262Z,-0.92
2022-12-18T12:22:01.271Z,-0.85
2022-12-18T12:23:01.283Z,-0.90
2022-12-18T12:24:01.200Z,-0.93
2022-12-18T12:25:01.186Z,-0.83
2022-12-18T12:26:01.161Z,-0.86
2022-12-18T12:27:01.211Z,-0.78
2022-12-18T12:28:01.126Z,-0.97
2022-12-18T12:29:01.114Z,-0.97
2022-12-18T12:30:01.129Z,-0.97
2022-12-18T12:31:01.074Z,-1.07
2022-12-18T12:32:01.244Z,-1.05
2022-12-18T12:33:01.038Z,-1.11
2022-12-18T12:34:01.037Z,-1.00
2022-12-18T12:35:06.076Z,-1.21
2022-12-18T12:36:02.997Z,-1.23
2022-12-18T12:37:01.011Z,-1.15
2022-12-18T12:38:00.974Z,-1.21
2022-12-18T12:39:01.006Z,-1.14
2022-12-18T12:40:07.267Z,-1.14
2022-12-18T12:41:03.369Z,-1.11
2022-12-18T12:42:01.935Z,-1.13
2022-12-18T12:43:00.874Z,-1.15
2022-12-18T12:44:00.858Z,-1.03
2022-12-18T12:45:00.834Z,-1.05
2022-12-18T12:46:00.865Z,-0.99
2022-12-18T12:47:00.826Z,-1.02
2022-12-18T12:48:00.793Z,-0.95
2022-12-18T12:49:00.762Z,-0.99
2022-12-18T12:50:00.743Z,-1.11
2022-12-18T12:51:00.729Z,-1.07
2022-12-18T12:52:00.745Z,-1.13
2022-12-18T12:53:00.690Z,-1.14
2022-12-18T12:54:00.681Z,-1.18
2022-12-18T12:55:00.742Z,-1.07
2022-12-18T12:56:00.647Z,-1.17
2022-12-18T12:57:35.420Z,-1.18
2022-12-18T12:58:00.628Z,-1.15
2022-12-18T12:59:00.633Z,-1.13
2022-12-18T13:00:00.597Z,-1.23
2022-12-18T13:01:00.599Z,-1.17